KHSB

Harrisburg-Raleigh Airport

Harrisburg, Illinois, USA
METAR KHSB 210355Z AUTO 21006KT 10SM OVC007 21/20 A2982 RMK AO2 T02050204
Observed Flight Rules
Aug-21 @ 03:55 UTC (16 minutes ago) Instrument Flight Rules
Wind Visibility Clouds
210° at 6 knots 10 miles
  • Overcast at 700' AGL
Temperatures Readings
Current 21°C / 70°F
Dewpoint 20°C / 68°F
Humidity 94%
Altimeter 29.82" Hg
Pressure 1010 hPa
Elevation 121
METAR KHSB 210355Z AUTO 21006KT 10SM OVC007 21/20 A2982 RMK AO2 T02050204
Observed Flight Rules
Aug-21 @ 03:55 UTC
(16 minutes ago)
IFR
Wind Visibility
210° at 6 knots 10 miles
Clouds
  • Overcast at 700' AGL
Temperature Dewpoint
21°C / 70°F 20°C / 68°F
Humidity Altimeter Pressure
94% 29.82" Hg 1010 hPa